Time;durP1;ratioP1;P1;durP2;ratioP2;P2;SDS_P1;SDS_P2;PMS_P1;PMS_P2;Temp;Humidity;BMP_temperature;BMP_pressure;BME280_temperature;BME280_humidity;BME280_pressure;Samples;Min_cycle;Max_cycle;Signal;HPM_P1;HPM_P2
2021/12/16 00:09:08;;;;;;;37.15;10.50;;;;;;;7.19;100.00;102560.16;5091830;28;20472;-76
2021/12/16 00:20:15;;;;;;;36.25;11.45;;;;;;;7.27;100.00;102559.66;5090622;28;20043;-76
2021/12/16 00:30:13;;;;;;;41.25;10.05;;;;;;;7.21;100.00;102565.38;5091674;28;20654;-76
2021/12/16 00:33:09;;;;;;;36.87;10.83;;;;;;;7.21;100.00;102570.69;5090173;28;20032;-76
2021/12/16 00:35:33;;;;;;;41.88;11.48;;;;;;;7.21;100.00;102575.13;5089835;28;20101;-76
2021/12/16 00:37:59;;;;;;;43.30;10.07;;;;;;;7.17;100.00;102583.31;5073439;28;20067;-76
2021/12/16 00:40:24;;;;;;;40.25;11.57;;;;;;;7.16;100.00;102583.38;5073464;28;20081;-76
2021/12/16 00:42:55;;;;;;;35.23;12.03;;;;;;;7.24;100.00;102598.88;5090283;28;20444;-76
2021/12/16 00:45:33;;;;;;;39.63;11.55;;;;;;;7.17;100.00;102591.28;5090809;28;20442;-76
2021/12/16 00:48:07;;;;;;;54.78;15.05;;;;;;;7.19;100.00;102593.84;5089957;28;20572;-76
2021/12/16 00:55:53;;;;;;;39.80;12.85;;;;;;;7.19;100.00;102609.78;5089978;28;20036;-76
2021/12/16 00:58:29;;;;;;;45.88;14.75;;;;;;;7.18;100.00;102606.25;5089898;28;20464;-76
2021/12/16 01:01:39;;;;;;;41.03;14.37;;;;;;;7.16;100.00;102615.28;5073103;28;20036;-76
2021/12/16 01:04:10;;;;;;;43.10;12.68;;;;;;;7.14;100.00;102618.03;5086450;28;20473;-76
2021/12/16 01:34:56;;;;;;;43.35;13.80;;;;;;;7.05;100.00;102658.44;5089009;28;20028;-76
2021/12/16 01:48:30;;;;;;;69.15;17.00;;;;;;;7.07;100.00;102667.19;5089064;28;20314;-76
2021/12/16 01:50:51;;;;;;;44.38;14.13;;;;;;;7.07;100.00;102666.28;5088874;28;20043;-76
2021/12/16 01:56:24;;;;;;;49.35;15.80;;;;;;;7.10;100.00;102685.56;5088954;28;20499;-76
2021/12/16 01:58:51;;;;;;;47.70;16.33;;;;;;;7.09;100.00;102686.50;5088727;28;20036;-76
2021/12/16 02:01:21;;;;;;;47.33;16.88;;;;;;;7.19;100.00;102713.41;5088928;28;20058;-76
2021/12/16 02:03:54;;;;;;;41.70;16.33;;;;;;;7.07;100.00;102695.50;5088442;28;20160;-76
2021/12/16 02:06:42;;;;;;;48.67;17.50;;;;;;;7.10;100.00;102708.63;5089758;28;20032;-76
2021/12/16 02:09:26;;;;;;;50.17;16.15;;;;;;;7.08;100.00;102706.06;5088598;28;20042;-76
2021/12/16 02:12:06;;;;;;;43.80;15.25;;;;;;;7.17;100.00;102712.63;5072311;28;20024;-76
2021/12/16 02:36:02;;;;;;;64.15;19.30;;;;;;;7.34;100.00;102714.25;5089389;28;20471;-76
2021/12/16 02:38:33;;;;;;;63.42;19.02;;;;;;;7.30;100.00;102707.41;5071892;28;20081;-76
2021/12/16 02:41:00;;;;;;;48.83;16.50;;;;;;;7.30;100.00;102712.72;5088677;28;20035;-75
2021/12/16 02:48:43;;;;;;;59.58;18.88;;;;;;;7.28;100.00;102725.25;5088349;28;20050;-76
2021/12/16 02:51:12;;;;;;;53.95;16.75;;;;;;;7.26;100.00;102728.00;5088313;28;20035;-76
2021/12/16 02:53:51;;;;;;;54.67;18.25;;;;;;;7.31;100.00;102727.75;5088952;28;20032;-75
2021/12/16 02:56:17;;;;;;;49.92;16.58;;;;;;;7.31;100.00;102728.59;5071398;28;20039;-75
2021/12/16 02:58:49;;;;;;;57.83;18.55;;;;;;;7.30;100.00;102736.63;5088280;28;20036;-75
2021/12/16 03:01:28;;;;;;;52.78;16.38;;;;;;;7.31;100.00;102744.53;5089287;28;20028;-75
2021/12/16 03:03:56;;;;;;;49.28;16.70;;;;;;;7.32;100.00;102734.75;5087951;28;20039;-75
2021/12/16 03:06:21;;;;;;;44.17;16.25;;;;;;;7.30;100.00;102744.59;5088251;28;20055;-75
2021/12/16 03:08:48;;;;;;;42.22;14.48;;;;;;;7.35;100.00;102742.53;5088301;28;20374;-76
2021/12/16 03:11:21;;;;;;;51.78;16.05;;;;;;;7.37;100.00;102748.59;5087944;28;20042;-75
2021/12/16 03:16:43;;;;;;;43.83;13.55;;;;;;;7.39;100.00;102739.59;5088181;28;20097;-76
2021/12/16 03:19:14;;;;;;;49.55;14.63;;;;;;;7.32;100.00;102722.31;5088367;28;20139;-76
2021/12/16 03:21:48;;;;;;;47.17;13.63;;;;;;;7.38;100.00;102737.03;5091794;28;20176;-76
2021/12/16 03:27:29;;;;;;;38.22;14.13;;;;;;;7.42;100.00;102727.06;5091705;28;20088;-76
2021/12/16 03:35:31;;;;;;;42.70;15.32;;;;;;;7.41;100.00;102742.16;5091334;28;20552;-77
2021/12/16 03:38:10;;;;;;;40.33;14.65;;;;;;;7.42;100.00;102745.66;5074513;28;20459;-76
2021/12/16 03:40:38;;;;;;;40.85;14.80;;;;;;;7.45;100.00;102758.78;5091466;28;20036;-76
2021/12/16 03:43:11;;;;;;;35.00;13.00;;;;;;;7.47;100.00;102747.13;5092177;28;20073;-76
2021/12/16 03:48:36;;;;;;;;;;;;;;;7.46;100.00;102748.06;5091628;28;20043;-77
2021/12/16 03:51:06;;;;;;;39.40;12.85;;;;;;;7.48;100.00;102761.25;5074511;28;19912;-76
2021/12/16 03:53:32;;;;;;;42.92;14.23;;;;;;;7.46;100.00;102756.03;5091058;28;20035;-76
2021/12/16 03:55:58;;;;;;;38.33;10.93;;;;;;;7.36;100.00;102753.06;5091004;28;20121;-76
2021/12/16 03:58:26;;;;;;;33.08;12.75;;;;;;;7.48;100.00;102777.19;5091085;28;20051;-77
2021/12/16 04:01:01;;;;;;;30.77;11.48;;;;;;;7.43;100.00;102771.31;5074353;28;20051;-77
2021/12/16 04:03:27;;;;;;;30.90;12.23;;;;;;;7.41;100.00;102774.06;5074103;28;20059;-76
2021/12/16 04:05:53;;;;;;;38.35;12.35;;;;;;;7.46;100.00;102808.34;5073826;28;20039;-76
2021/12/16 04:08:20;;;;;;;29.10;9.65;;;;;;;7.41;100.00;102803.28;5090905;28;20031;-76
2021/12/16 04:11:01;;;;;;;37.25;10.00;;;;;;;7.47;100.00;102813.56;5090645;28;20140;-76
2021/12/16 04:13:41;;;;;;;38.42;9.43;;;;;;;7.48;100.00;102836.53;5090438;28;20342;-76
2021/12/16 04:16:07;;;;;;;26.30;8.57;;;;;;;7.48;100.00;102825.91;5073919;28;20039;-76
2021/12/16 04:18:34;;;;;;;33.97;8.95;;;;;;;7.40;100.00;102820.19;5090669;28;20575;-76
2021/12/16 04:21:00;;;;;;;22.98;6.35;;;;;;;7.60;100.00;102842.91;5090748;28;20043;-76
2021/12/16 04:23:27;;;;;;;28.65;8.18;;;;;;;7.61;100.00;102834.84;5090485;28;20032;-76
2021/12/16 04:25:53;;;;;;;25.30;5.35;;;;;;;7.63;100.00;102825.91;5090209;28;20028;-76
2021/12/16 04:28:26;;;;;;;24.43;6.97;;;;;;;7.60;100.00;102821.66;5073695;28;20097;-76
2021/12/16 04:30:58;;;;;;;13.45;5.03;;;;;;;7.61;100.00;102826.88;5090499;28;20083;-77
2021/12/16 04:33:27;;;;;;;13.85;4.75;;;;;;;7.60;100.00;102817.19;5090292;28;20040;-76
2021/12/16 04:35:53;;;;;;;11.75;5.03;;;;;;;7.64;100.00;102817.00;5090181;28;20036;-76
2021/12/16 04:38:18;;;;;;;13.82;4.60;;;;;;;7.68;100.00;102821.16;5073395;28;20035;-76
2021/12/16 04:40:46;;;;;;;18.02;4.53;;;;;;;7.61;100.00;102802.09;5090283;28;20047;-76
2021/12/16 04:43:19;;;;;;;41.00;6.22;;;;;;;7.54;100.00;102780.34;5091113;28;20078;-77
2021/12/16 04:45:52;;;;;;;16.02;3.53;;;;;;;7.54;100.00;102775.03;5089955;28;20028;-76
2021/12/16 04:48:18;;;;;;;15.85;3.97;;;;;;;7.54;100.00;102792.78;5090132;28;20031;-76
2021/12/16 04:50:44;;;;;;;17.23;3.47;;;;;;;7.58;100.00;102784.50;5089940;28;20037;-76
2021/12/16 04:53:12;;;;;;;18.63;4.57;;;;;;;7.52;100.00;102790.22;5073275;28;20038;-77
2021/12/16 04:55:42;;;;;;;17.25;5.72;;;;;;;7.53;100.00;102810.53;5089605;28;20074;-76
2021/12/16 04:58:09;;;;;;;28.80;5.88;;;;;;;7.52;100.00;102808.81;5089842;28;20024;-76
2021/12/16 05:00:34;;;;;;;17.00;4.30;;;;;;;7.50;100.00;102813.38;5089807;28;20343;-76
2021/12/16 05:03:16;;;;;;;15.60;3.42;;;;;;;7.53;100.00;102834.44;5090679;28;20032;-76
2021/12/16 05:05:42;;;;;;;19.48;3.92;;;;;;;7.51;100.00;102836.34;5088992;28;20036;-77
2021/12/16 05:08:08;;;;;;;11.75;2.90;;;;;;;7.47;100.00;102831.28;5089421;28;20457;-76
2021/12/16 05:10:38;;;;;;;10.18;3.35;;;;;;;7.46;100.00;102829.59;5089312;28;20381;-76
2021/12/16 05:13:12;;;;;;;12.88;3.35;;;;;;;7.47;100.00;102847.22;5089356;28;20362;-76
2021/12/16 05:15:41;;;;;;;;;;;;;;;7.51;100.00;102864.72;5089779;28;20103;-77
2021/12/16 05:18:13;;;;;;;7.72;3.17;;;;;;;7.51;100.00;102870.03;5072841;28;20326;-76
2021/12/16 05:20:46;;;;;;;17.08;3.35;;;;;;;7.58;100.00;102892.66;5089234;28;20043;-76
2021/12/16 05:28:35;;;;;;;9.77;3.00;;;;;;;7.52;100.00;102895.69;5090087;28;20131;-81
2021/12/16 05:31:02;;;;;;;16.88;4.05;;;;;;;7.50;100.00;102901.09;5089481;28;20115;-82
2021/12/16 05:33:34;;;;;;;11.75;3.92;;;;;;;7.59;100.00;102913.84;5089436;28;20032;-81
2021/12/16 05:36:01;;;;;;;;;;;;;;;7.56;100.00;102903.41;5089993;28;20031;-80
2021/12/16 05:38:27;;;;;;;;;;;;;;;7.48;100.00;102908.28;5090109;28;19965;-81
2021/12/16 05:40:54;;;;;;;14.18;3.13;;;;;;;7.46;100.00;102915.50;5089524;28;20334;-82
2021/12/16 05:43:29;;;;;;;14.80;4.22;;;;;;;7.41;100.00;102904.28;5073871;28;20453;-81
2021/12/16 05:45:56;;;;;;;10.23;2.88;;;;;;;7.50;100.00;102917.03;5089451;28;20587;-82
2021/12/16 05:48:25;;;;;;;9.77;4.47;;;;;;;7.47;100.00;102925.19;5089636;28;20372;-82
2021/12/16 05:51:04;;;;;;;14.40;3.35;;;;;;;7.51;100.00;102933.84;5072712;28;20036;-82
2021/12/16 05:53:31;;;;;;;14.30;3.78;;;;;;;7.49;100.00;102925.97;5089211;28;20035;-80
2021/12/16 05:55:58;;;;;;;14.80;3.60;;;;;;;7.54;100.00;102942.50;5072504;28;20493;-82
2021/12/16 05:58:28;;;;;;;15.70;4.85;;;;;;;7.53;100.00;102942.56;5089582;28;20032;-82
2021/12/16 06:01:01;;;;;;;12.82;4.15;;;;;;;7.50;100.00;102948.09;5089417;28;20034;-82
2021/12/16 06:03:29;;;;;;;13.20;4.38;;;;;;;7.53;100.00;102942.56;5072305;28;20024;-82
2021/12/16 06:05:56;;;;;;;9.75;4.05;;;;;;;7.65;100.00;102948.97;5072296;28;20036;-81
2021/12/16 06:08:22;;;;;;;;;;;;;;;7.59;100.00;102936.91;5072740;28;20170;-81
2021/12/16 06:13:30;;;;;;;;;;;;;;;7.53;100.00;102943.44;5090388;28;20097;-81
2021/12/16 06:27:05;;;;;;;18.00;5.77;;;;;;;7.56;100.00;102995.56;5090009;28;20036;-81
2021/12/16 06:29:32;;;;;;;14.75;5.75;;;;;;;7.52;100.00;102996.69;5088993;28;20031;-81
2021/12/16 06:31:58;;;;;;;19.83;6.40;;;;;;;7.50;100.00;102999.44;5088968;28;20521;-81
2021/12/16 06:34:24;;;;;;;13.95;4.55;;;;;;;7.55;100.00;103009.81;5088658;28;20124;-81
2021/12/16 06:36:50;;;;;;;13.27;4.07;;;;;;;7.47;100.00;103012.91;5087937;28;20123;-82
2021/12/16 06:39:15;;;;;;;18.23;4.70;;;;;;;7.51;100.00;103021.56;5086214;28;20318;-84
2021/12/16 06:42:05;;;;;;;17.52;5.15;;;;;;;7.54;100.00;103018.75;5088020;28;20501;-86
2021/12/16 06:44:50;;;;;;;15.75;4.45;;;;;;;7.46;100.00;103018.31;5072477;28;20412;-83
2021/12/16 06:47:21;;;;;;;10.50;4.75;;;;;;;7.45;100.00;103029.88;5087617;28;20047;-82
2021/12/16 06:49:48;;;;;;;15.98;6.13;;;;;;;7.40;100.00;103022.16;5089910;28;20053;-81
2021/12/16 06:52:17;;;;;;;11.40;4.75;;;;;;;7.43;100.00;103029.13;5090134;28;20040;-83
2021/12/16 06:55:35;;;;;;;12.80;5.85;;;;;;;7.42;100.00;103030.88;5091902;28;20476;-81
2021/12/16 07:00:08;;;;;;;15.68;4.57;;;;;;;7.45;100.00;103014.78;5093882;28;20027;-82
2021/12/16 07:02:55;;;;;;;13.57;4.43;;;;;;;7.26;100.00;102983.09;5092934;28;20816;-82
2021/12/16 07:05:23;;;;;;;14.77;4.35;;;;;;;7.21;100.00;102969.22;5092031;28;20069;-81
2021/12/16 07:07:49;;;;;;;14.88;4.53;;;;;;;7.11;100.00;102971.50;5092286;28;20039;-83
2021/12/16 07:10:17;;;;;;;8.90;3.57;;;;;;;7.01;100.00;102959.69;5092901;28;20036;-83
2021/12/16 07:12:48;;;;;;;11.60;3.67;;;;;;;6.88;100.00;102964.81;5092822;28;20464;-83
2021/12/16 07:15:20;;;;;;;14.60;4.85;;;;;;;6.72;100.00;102964.81;5092525;28;20032;-83
2021/12/16 07:17:47;;;;;;;15.43;5.20;;;;;;;6.81;100.00;102982.00;5093223;28;20035;-84
2021/12/16 07:20:15;;;;;;;17.60;5.05;;;;;;;6.83;100.00;102990.75;5093368;28;20063;-81
2021/12/16 07:22:41;;;;;;;12.48;4.70;;;;;;;6.69;100.00;102977.38;5092620;28;20107;-82
2021/12/16 07:25:07;;;;;;;16.58;4.78;;;;;;;6.65;100.00;102982.00;5092321;28;20214;-81
2021/12/16 07:27:35;;;;;;;;;;;;;;;6.53;100.00;102978.22;5093940;28;20056;-82
2021/12/16 07:30:04;;;;;;;10.70;3.85;;;;;;;6.37;100.00;102971.09;5092525;28;20269;-83
2021/12/16 07:32:29;;;;;;;23.63;5.93;;;;;;;6.38;100.00;102988.75;5074233;28;20510;-82
2021/12/16 07:34:55;;;;;;;22.17;5.13;;;;;;;6.30;100.00;102997.97;5090737;28;20036;-81
2021/12/16 07:37:20;;;;;;;14.57;4.88;;;;;;;6.37;100.00;103005.59;5092037;28;20067;-81
2021/12/16 07:39:47;;;;;;;22.20;5.95;;;;;;;6.45;100.00;103024.66;5092307;28;20078;-82
2021/12/16 07:42:14;;;;;;;20.55;6.35;;;;;;;6.47;100.00;103041.34;5092407;28;20024;-84
2021/12/16 07:44:40;;;;;;;17.23;6.53;;;;;;;6.42;100.00;103030.13;5093546;28;20058;-85
2021/12/16 07:47:07;;;;;;;;;;;;;;;6.51;100.00;103053.53;5093989;28;20031;-85
2021/12/16 07:49:41;;;;;;;15.63;5.15;;;;;;;6.47;100.00;103059.94;5093220;28;19922;-85
2021/12/16 07:52:11;;;;;;;16.02;5.25;;;;;;;6.47;100.00;103065.25;5092330;28;20032;-85
2021/12/16 07:54:37;;;;;;;23.92;6.05;;;;;;;6.45;100.00;103080.38;5075095;28;20108;-85
2021/12/16 07:57:03;;;;;;;15.02;5.78;;;;;;;6.45;100.00;103086.53;5093922;28;20020;-85
2021/12/16 07:59:31;;;;;;;25.40;5.68;;;;;;;6.45;100.00;103098.97;5075183;28;20046;-86
2021/12/16 08:01:58;;;;;;;20.75;6.40;;;;;;;6.37;100.00;103106.44;5091949;28;20427;-84
2021/12/16 08:04:28;;;;;;;18.85;5.85;;;;;;;6.37;100.00;103109.09;5090817;28;20024;-85
2021/12/16 08:07:03;;;;;;;12.68;4.97;;;;;;;6.34;100.00;103116.28;5073893;28;20139;-85
2021/12/16 08:09:29;;;;;;;15.33;4.77;;;;;;;6.28;100.00;103124.53;5090785;28;20028;-85
2021/12/16 08:11:55;;;;;;;16.42;4.50;;;;;;;6.30;100.00;103129.78;5090282;28;20393;-85
2021/12/16 08:14:20;;;;;;;18.03;6.30;;;;;;;6.28;100.00;103137.81;5090305;28;20128;-85
2021/12/16 08:16:46;;;;;;;14.02;5.68;;;;;;;6.38;100.00;103147.97;5090488;28;20070;-85
2021/12/16 08:19:12;;;;;;;26.60;6.77;;;;;;;6.33;100.00;103126.97;5073409;28;20038;-85
2021/12/16 08:21:38;;;;;;;25.05;8.00;;;;;;;6.38;100.00;103121.44;5073709;28;20054;-85
2021/12/16 08:24:07;;;;;;;19.95;6.25;;;;;;;6.50;100.00;103139.38;5090382;28;20308;-85
2021/12/16 08:26:35;;;;;;;21.92;6.07;;;;;;;6.56;100.00;103136.44;5091215;28;20032;-85
2021/12/16 08:29:01;;;;;;;23.45;6.80;;;;;;;6.57;100.00;103127.50;5090107;28;20046;-85
2021/12/16 08:31:27;;;;;;;24.60;6.03;;;;;;;6.85;100.00;103150.00;5090954;28;20363;-85
2021/12/16 08:33:52;;;;;;;21.02;6.38;;;;;;;6.93;100.00;103145.13;5089895;28;20036;-85
2021/12/16 08:36:18;;;;;;;25.23;6.70;;;;;;;7.27;100.00;103161.97;5090908;28;20431;-85
2021/12/16 08:38:45;;;;;;;19.33;5.50;;;;;;;7.98;100.00;103178.44;5089998;28;20497;-85
2021/12/16 08:41:22;;;;;;;24.25;5.32;;;;;;;8.67;100.00;103165.63;5089706;28;20039;-84
2021/12/16 08:43:49;;;;;;;17.00;4.25;;;;;;;9.15;100.00;103139.63;5089546;28;20115;-84
2021/12/16 08:46:18;;;;;;;13.40;4.60;;;;;;;9.66;100.00;103094.63;5090166;28;20067;-84
2021/12/16 08:48:45;;;;;;;13.63;3.53;;;;;;;10.24;100.00;103038.38;5090543;28;20028;-84
2021/12/16 08:51:13;;;;;;;12.98;3.45;;;;;;;10.70;100.00;103008.47;5090303;28;20047;-83
2021/12/16 08:53:39;;;;;;;7.13;3.55;;;;;;;11.11;100.00;102975.28;5090503;28;20469;-84
2021/12/16 08:56:06;;;;;;;12.27;3.20;;;;;;;11.16;100.00;102925.84;5089557;28;20071;-84
2021/12/16 08:58:32;;;;;;;13.45;2.92;;;;;;;11.52;96.50;102900.00;5089402;28;20032;-83
2021/12/16 09:01:04;;;;;;;8.90;3.08;;;;;;;11.83;92.15;102861.03;5090234;28;20024;-84
2021/12/16 09:03:30;;;;;;;12.80;3.55;;;;;;;11.97;88.40;102819.84;5089057;28;20086;-84
2021/12/16 09:05:56;;;;;;;10.00;2.83;;;;;;;11.53;86.09;102762.59;5089307;28;20043;-84
2021/12/16 09:08:22;;;;;;;13.82;3.42;;;;;;;11.61;86.24;102791.41;5072293;28;20469;-84
2021/12/16 09:10:48;;;;;;;9.50;2.65;;;;;;;11.59;85.61;102766.63;5090370;28;20051;-84
2021/12/16 09:13:16;;;;;;;9.23;2.40;;;;;;;11.64;84.82;102756.41;5090001;28;20445;-84
2021/12/16 09:15:55;;;;;;;9.43;2.67;;;;;;;12.22;84.34;102800.00;5088976;28;20046;-84
2021/12/16 09:18:25;;;;;;;12.73;3.42;;;;;;;12.51;81.51;102720.94;5088710;28;20028;-84
2021/12/16 09:20:51;;;;;;;10.23;2.65;;;;;;;12.46;80.33;102681.97;5089128;28;20043;-84
2021/12/16 09:23:16;;;;;;;;;;;;;;;12.17;80.51;102675.47;5089477;28;20036;-85
2021/12/16 09:25:44;;;;;;;;;;;;;;;11.74;81.05;102676.28;5072343;28;19919;-84
2021/12/16 09:28:10;;;;;;;23.17;4.57;;;;;;;10.97;82.75;102674.25;5089921;28;20313;-84
2021/12/16 09:30:36;;;;;;;17.08;3.97;;;;;;;10.34;84.90;102729.75;5089657;28;20035;-84
2021/12/16 09:33:04;;;;;;;16.27;4.10;;;;;;;10.03;87.11;102779.97;5088954;28;20055;-85
2021/12/16 09:35:33;;;;;;;10.40;3.63;;;;;;;10.39;88.51;102841.56;5088743;28;20035;-84
2021/12/16 09:38:04;;;;;;;18.98;5.95;;;;;;;10.78;88.02;102848.50;5089067;28;20043;-85
2021/12/16 09:40:35;;;;;;;10.40;3.45;;;;;;;11.45;86.65;102857.78;5088910;28;20043;-84
2021/12/16 09:43:02;;;;;;;22.20;4.43;;;;;;;11.96;84.58;102827.97;5089052;28;20036;-85
2021/12/16 09:45:27;;;;;;;14.60;3.90;;;;;;;12.36;82.62;102787.31;5089412;28;20043;-85
2021/12/16 09:47:53;;;;;;;20.40;4.30;;;;;;;12.78;80.47;102748.13;5071782;28;20044;-86
2021/12/16 09:50:24;;;;;;;22.15;4.22;;;;;;;12.86;79.56;102761.72;5088764;28;20124;-83
2021/12/16 09:52:51;;;;;;;16.58;3.38;;;;;;;12.80;78.37;102697.03;5088960;28;20381;-85
2021/12/16 09:55:16;;;;;;;;;;;;;;;12.96;77.82;102688.56;5089801;28;20458;-85
2021/12/16 09:57:42;;;;;;;;;;;;;;;13.22;77.13;102686.31;5089430;28;19923;-86
2021/12/16 10:00:12;;;;;;;14.98;4.75;;;;;;;13.34;76.29;102655.75;5089921;28;19922;-86
2021/12/16 10:02:38;;;;;;;20.35;5.28;;;;;;;13.03;76.28;102647.66;5072409;28;20036;-86
2021/12/16 10:05:07;;;;;;;18.05;4.10;;;;;;;12.79;76.60;102622.97;5089078;28;20128;-86
2021/12/16 10:07:34;;;;;;;20.08;5.18;;;;;;;12.59;77.78;102676.41;5089751;28;20036;-85
2021/12/16 10:10:24;;;;;;;23.65;6.30;;;;;;;12.36;78.61;102686.41;5089785;28;20448;-85
2021/12/16 10:12:51;;;;;;;23.02;5.30;;;;;;;12.60;78.32;102683.50;5083192;28;20043;-85
2021/12/16 10:18:05;;;;;;;24.55;6.35;;;;;;;12.60;77.60;102643.31;5089646;28;20373;-86
2021/12/16 10:20:37;;;;;;;20.95;5.22;;;;;;;12.91;77.27;102674.69;5088790;28;20100;-86
2021/12/16 10:23:06;;;;;;;16.90;4.60;;;;;;;13.06;76.95;102665.31;5089600;28;20082;-86
2021/12/16 10:25:38;;;;;;;19.77;4.55;;;;;;;12.93;77.25;102668.22;5089314;28;20035;-86
2021/12/16 10:28:13;;;;;;;20.75;4.00;;;;;;;12.70;77.46;102666.66;5090240;28;20036;-85
2021/12/16 10:30:49;;;;;;;20.55;4.38;;;;;;;12.73;77.09;102652.97;5092743;28;20036;-86
2021/12/16 10:33:27;;;;;;;19.77;5.25;;;;;;;12.64;77.32;102657.28;5093649;28;20036;-87
2021/12/16 10:36:00;;;;;;;24.02;4.85;;;;;;;12.83;77.32;102683.38;5093405;28;20032;-86
2021/12/16 10:38:26;;;;;;;17.83;4.07;;;;;;;12.84;76.43;102642.19;5093934;28;20047;-87
2021/12/16 10:40:56;;;;;;;25.67;4.40;;;;;;;12.96;76.10;102662.59;5092726;28;20036;-87
2021/12/16 10:43:30;;;;;;;20.52;4.45;;;;;;;13.13;76.26;102685.25;5093585;28;20046;-86
2021/12/16 10:46:03;;;;;;;14.40;4.22;;;;;;;13.23;75.38;102648.63;5092223;28;20365;-86
2021/12/16 10:48:35;;;;;;;14.63;3.85;;;;;;;13.28;75.04;102640.22;5093743;28;20044;-87
2021/12/16 10:51:07;;;;;;;22.25;4.45;;;;;;;13.43;74.18;102630.81;5092498;28;20093;-87
2021/12/16 10:53:47;;;;;;;18.02;4.45;;;;;;;13.50;74.17;102645.38;5093456;28;20059;-87
2021/12/16 10:56:15;;;;;;;18.25;4.05;;;;;;;13.42;73.66;102588.03;5093800;28;20040;-87
2021/12/16 10:58:57;;;;;;;21.63;5.05;;;;;;;13.26;74.19;102626.06;5092440;28;20044;-87
2021/12/16 11:01:32;;;;;;;21.48;4.45;;;;;;;13.09;74.72;102646.31;5092587;28;20035;-87
2021/12/16 11:03:58;;;;;;;20.77;3.80;;;;;;;13.00;74.34;102626.50;5092863;28;20036;-87
2021/12/16 11:06:36;;;;;;;21.38;4.28;;;;;;;13.21;75.08;102669.38;5075675;28;20047;-88
2021/12/16 11:09:23;;;;;;;19.20;3.63;;;;;;;13.11;74.43;102593.41;5093153;28;20036;-87
2021/12/16 11:12:09;;;;;;;18.45;4.15;;;;;;;13.28;74.80;102641.06;5092202;28;20112;-85
2021/12/16 11:14:36;;;;;;;;;;;;;;;12.74;74.74;102596.56;5092391;28;20473;-87
2021/12/16 11:17:06;;;;;;;17.02;3.83;;;;;;;12.74;75.00;102603.78;5093262;28;19912;-88
2021/12/16 11:19:52;;;;;;;32.65;5.28;;;;;;;12.81;75.62;102648.69;5075376;28;20426;-88
2021/12/16 11:22:23;;;;;;;22.30;4.47;;;;;;;12.81;75.66;102680.84;5092067;28;20040;-88
2021/12/16 11:24:50;;;;;;;17.83;3.83;;;;;;;12.93;75.95;102695.03;5092004;28;20550;-88
2021/12/16 11:27:33;;;;;;;18.77;4.35;;;;;;;13.18;73.99;102648.19;5092831;28;20059;-87
2021/12/16 11:30:19;;;;;;;22.35;5.05;;;;;;;13.05;74.45;102632.31;5092138;28;20043;-88
2021/12/16 11:32:47;;;;;;;18.15;4.60;;;;;;;12.45;74.61;102578.47;5093001;28;20036;-87
2021/12/16 11:35:38;;;;;;;19.58;4.90;;;;;;;12.08;76.78;102676.22;5091718;28;20028;-89
2021/12/16 11:38:13;;;;;;;17.98;4.47;;;;;;;12.49;76.83;102729.09;5091648;28;20035;-88
2021/12/16 11:41:00;;;;;;;23.08;5.15;;;;;;;12.54;76.62;102709.94;5074192;28;20043;-88
2021/12/16 11:43:49;;;;;;;20.33;4.20;;;;;;;12.54;76.43;102675.97;5092273;28;20409;-87
2021/12/16 11:46:32;;;;;;;20.88;4.18;;;;;;;12.83;75.71;102681.56;5091322;28;20054;-88
2021/12/16 11:49:03;;;;;;;17.70;4.38;;;;;;;12.98;74.51;102638.34;5074652;28;20036;-88
2021/12/16 11:51:45;;;;;;;17.23;3.78;;;;;;;12.80;74.48;102619.31;5091452;28;20397;-88
2021/12/16 11:54:20;;;;;;;21.50;3.80;;;;;;;12.78;74.16;102600.69;5092036;28;20118;-88
2021/12/16 11:57:08;;;;;;;20.63;5.15;;;;;;;12.99;73.55;102624.78;5092417;28;20105;-88
2021/12/16 11:59:36;;;;;;;18.73;5.18;;;;;;;12.76;74.54;102637.50;5085767;28;20156;-89
2021/12/16 12:02:03;;;;;;;20.45;4.50;;;;;;;12.89;73.78;102629.25;5091226;28;20031;-88
2021/12/16 12:04:32;;;;;;;23.17;5.15;;;;;;;12.56;74.42;102628.47;5074188;28;20032;-89
2021/12/16 12:06:59;;;;;;;20.50;4.78;;;;;;;12.66;74.92;102674.91;5092429;28;20028;-89
2021/12/16 12:09:44;;;;;;;19.33;4.10;;;;;;;12.49;75.14;102680.00;5091616;28;20062;-88
2021/12/16 12:12:10;;;;;;;18.35;3.92;;;;;;;12.92;74.02;102669.19;5091730;28;20068;-90
2021/12/16 12:14:37;;;;;;;24.50;4.68;;;;;;;12.59;74.58;102644.25;5090818;28;20525;-89
2021/12/16 12:17:16;;;;;;;21.58;4.07;;;;;;;11.90;75.74;102609.00;5091256;28;20036;-89
2021/12/16 12:19:51;;;;;;;27.77;4.63;;;;;;;12.10;76.81;102726.00;5090865;28;20313;-89
2021/12/16 12:22:25;;;;;;;20.23;3.72;;;;;;;12.39;75.69;102696.84;5090839;28;20093;-89
2021/12/16 12:24:51;;;;;;;24.70;4.28;;;;;;;12.18;75.71;102645.91;5091389;28;20042;-89
2021/12/16 12:27:18;;;;;;;;;;;;;;;12.46;75.16;102684.66;5091334;28;20071;-90
2021/12/16 12:29:50;;;;;;;20.30;3.53;;;;;;;12.36;75.48;102674.81;5090669;28;19916;-90
2021/12/16 12:32:27;;;;;;;20.02;4.57;;;;;;;12.39;74.69;102650.47;5073471;28;20036;-89
2021/12/16 12:35:14;;;;;;;18.23;4.47;;;;;;;12.29;74.72;102646.84;5090464;28;20047;-89
2021/12/16 12:37:45;;;;;;;24.17;4.50;;;;;;;12.32;74.68;102646.59;5090657;28;20044;-89
2021/12/16 12:40:24;;;;;;;17.73;4.05;;;;;;;12.01;75.00;102606.28;5091413;28;20032;-90
2021/12/16 12:42:52;;;;;;;17.27;4.03;;;;;;;12.07;74.59;102629.88;5090465;28;20354;-90
2021/12/16 12:45:22;;;;;;;16.90;3.95;;;;;;;12.13;74.77;102653.47;5090561;28;20392;-90
2021/12/16 12:47:53;;;;;;;22.63;4.25;;;;;;;11.89;74.82;102607.28;5073616;28;20416;-90
2021/12/16 12:50:25;;;;;;;21.35;3.53;;;;;;;11.82;75.40;102645.25;5073510;28;20188;-89
2021/12/16 12:52:53;;;;;;;21.35;4.50;;;;;;;11.63;76.03;102639.66;5089379;28;20036;-90
2021/12/16 12:55:28;;;;;;;19.25;4.55;;;;;;;11.62;76.39;102676.28;5090098;28;20046;-90
2021/12/16 12:58:03;;;;;;;22.38;5.07;;;;;;;11.71;76.25;102687.22;5090263;28;20820;-90
2021/12/16 13:00:43;;;;;;;15.38;4.40;;;;;;;11.49;76.50;102653.28;5090471;28;20100;-90
2021/12/16 13:03:17;;;;;;;23.58;4.00;;;;;;;11.23;77.53;102679.41;5090308;28;20387;-90
2021/12/16 13:05:51;;;;;;;22.10;3.58;;;;;;;11.50;77.18;102746.81;5089909;28;20093;-90
2021/12/16 13:08:25;;;;;;;21.05;4.78;;;;;;;11.89;77.06;102765.22;5073144;28;20046;-90
2021/12/16 13:10:50;;;;;;;29.38;5.47;;;;;;;11.68;76.36;102701.66;5089903;28;20115;-90
2021/12/16 13:16:12;;;;;;;17.73;4.53;;;;;;;11.93;76.42;102721.16;5089881;28;20068;-90
2021/12/16 13:24:36;;;;;;;30.13;5.68;;;;;;;11.82;75.49;102645.25;5091376;28;20536;-89
2021/12/16 13:27:13;;;;;;;;;;;;;;;12.11;74.77;102667.97;5093851;28;20035;-90
2021/12/16 13:30:05;;;;;;;27.95;4.72;;;;;;;12.29;74.61;102673.63;5091017;28;19912;-90
2021/12/16 13:32:52;;;;;;;26.38;5.32;;;;;;;11.91;74.16;102575.91;5090988;28;20046;-90
2021/12/16 13:35:34;;;;;;;21.20;4.80;;;;;;;11.80;74.94;102652.53;5090503;28;20040;-90
2021/12/16 13:38:06;;;;;;;17.73;4.10;;;;;;;12.20;74.62;102681.44;5091738;28;20039;-90
2021/12/16 13:40:36;;;;;;;17.85;4.22;;;;;;;12.21;73.69;102612.66;5092081;28;20043;-90
2021/12/16 13:43:12;;;;;;;20.45;3.80;;;;;;;12.17;73.34;102604.03;5091767;28;20036;-89
2021/12/16 13:46:26;;;;;;;25.73;4.57;;;;;;;11.50;74.89;102604.19;5073717;28;20047;-90
2021/12/16 14:06:56;;;;;;;20.23;4.10;;;;;;;9.56;81.01;102736.16;5089403;28;20035;-89
2021/12/16 14:09:29;;;;;;;26.30;5.25;;;;;;;9.23;82.79;102790.84;5072614;28;20032;-88
2021/12/16 14:14:53;;;;;;;27.45;4.72;;;;;;;8.80;86.10;102870.97;5089778;28;20052;-88
2021/12/16 14:17:53;;;;;;;25.58;4.60;;;;;;;8.69;87.25;102884.13;5090593;28;20134;-89
2021/12/16 14:23:14;;;;;;;17.27;4.20;;;;;;;8.25;89.02;102893.91;5089897;28;20028;-88
2021/12/16 14:47:18;;;;;;;26.50;4.90;;;;;;;7.40;96.37;102996.44;5089172;28;20035;-88
2021/12/16 14:49:48;;;;;;;29.30;5.32;;;;;;;7.29;97.17;103005.97;5088996;28;20036;-88